sensor_id;sensor_type;location;lat;lon;timestamp;temperature;humidity
25112;DHT22;13092;51.996;4.458;2023-06-26T00:01:40;24.80;99.90
25112;DHT22;13092;51.996;4.458;2023-06-26T00:04:09;24.70;99.90
25112;DHT22;13092;51.996;4.458;2023-06-26T00:06:41;24.60;99.90
25112;DHT22;13092;51.996;4.458;2023-06-26T00:09:10;24.50;99.90
25112;DHT22;13092;51.996;4.458;2023-06-26T00:11:39;24.40;99.90
25112;DHT22;13092;51.996;4.458;2023-06-26T00:14:08;24.20;99.90
25112;DHT22;13092;51.996;4.458;2023-06-26T00:16:37;24.10;99.90
25112;DHT22;13092;51.996;4.458;2023-06-26T00:19:05;23.90;99.90
25112;DHT22;13092;51.996;4.458;2023-06-26T00:21:34;24.10;99.90
25112;DHT22;13092;51.996;4.458;2023-06-26T00:24:02;24.00;99.90
25112;DHT22;13092;51.996;4.458;2023-06-26T00:26:30;23.90;99.90
25112;DHT22;13092;51.996;4.458;2023-06-26T00:28:59;23.80;99.90
25112;DHT22;13092;51.996;4.458;2023-06-26T00:31:29;23.70;99.90
25112;DHT22;13092;51.996;4.458;2023-06-26T00:33:57;23.60;99.90
25112;DHT22;13092;51.996;4.458;2023-06-26T00:36:26;23.50;99.90
25112;DHT22;13092;51.996;4.458;2023-06-26T00:38:54;23.40;99.90
25112;DHT22;13092;51.996;4.458;2023-06-26T00:41:23;23.40;99.90
25112;DHT22;13092;51.996;4.458;2023-06-26T00:43:51;23.20;99.90
25112;DHT22;13092;51.996;4.458;2023-06-26T00:46:20;23.10;99.90
25112;DHT22;13092;51.996;4.458;2023-06-26T00:48:50;23.10;99.90
25112;DHT22;13092;51.996;4.458;2023-06-26T00:51:18;23.00;99.90
25112;DHT22;13092;51.996;4.458;2023-06-26T00:53:47;22.80;99.90
25112;DHT22;13092;51.996;4.458;2023-06-26T00:56:17;22.90;99.90
25112;DHT22;13092;51.996;4.458;2023-06-26T00:58:46;22.80;99.90
25112;DHT22;13092;51.996;4.458;2023-06-26T01:01:15;22.70;99.90
25112;DHT22;13092;51.996;4.458;2023-06-26T01:03:45;22.50;99.90
25112;DHT22;13092;51.996;4.458;2023-06-26T01:06:15;22.70;99.90
25112;DHT22;13092;51.996;4.458;2023-06-26T01:08:44;22.60;99.90
25112;DHT22;13092;51.996;4.458;2023-06-26T01:11:13;22.60;99.90
25112;DHT22;13092;51.996;4.458;2023-06-26T01:13:43;22.60;99.90
25112;DHT22;13092;51.996;4.458;2023-06-26T01:16:12;22.50;99.90
25112;DHT22;13092;51.996;4.458;2023-06-26T01:18:41;22.50;99.90
25112;DHT22;13092;51.996;4.458;2023-06-26T01:21:15;22.50;99.90
25112;DHT22;13092;51.996;4.458;2023-06-26T01:23:51;22.50;99.90
25112;DHT22;13092;51.996;4.458;2023-06-26T01:26:28;22.50;99.90
25112;DHT22;13092;51.996;4.458;2023-06-26T01:28:58;22.50;99.90
25112;DHT22;13092;51.996;4.458;2023-06-26T01:31:31;22.40;99.90
25112;DHT22;13092;51.996;4.458;2023-06-26T01:34:00;22.40;99.90
25112;DHT22;13092;51.996;4.458;2023-06-26T01:36:29;22.40;99.90
25112;DHT22;13092;51.996;4.458;2023-06-26T01:38:57;22.40;99.90
25112;DHT22;13092;51.996;4.458;2023-06-26T01:41:27;22.40;99.90
25112;DHT22;13092;51.996;4.458;2023-06-26T01:44:05;22.40;99.90
25112;DHT22;13092;51.996;4.458;2023-06-26T01:46:40;22.50;99.90
25112;DHT22;13092;51.996;4.458;2023-06-26T01:49:18;22.50;99.90
25112;DHT22;13092;51.996;4.458;2023-06-26T01:51:54;22.40;99.90
25112;DHT22;13092;51.996;4.458;2023-06-26T01:54:24;22.40;99.90
25112;DHT22;13092;51.996;4.458;2023-06-26T01:56:57;22.30;99.90
25112;DHT22;13092;51.996;4.458;2023-06-26T01:59:27;22.30;99.90
25112;DHT22;13092;51.996;4.458;2023-06-26T02:01:56;22.30;99.90
25112;DHT22;13092;51.996;4.458;2023-06-26T02:04:24;22.20;99.90
25112;DHT22;13092;51.996;4.458;2023-06-26T02:07:16;22.30;99.90
25112;DHT22;13092;51.996;4.458;2023-06-26T02:10:37;22.20;99.90
25112;DHT22;13092;51.996;4.458;2023-06-26T02:16:41;22.10;99.90
25112;DHT22;13092;51.996;4.458;2023-06-26T02:19:16;22.00;99.90
25112;DHT22;13092;51.996;4.458;2023-06-26T02:21:48;22.10;99.90
25112;DHT22;13092;51.996;4.458;2023-06-26T02:24:17;22.00;99.90
25112;DHT22;13092;51.996;4.458;2023-06-26T02:27:39;21.80;99.90
25112;DHT22;13092;51.996;4.458;2023-06-26T02:30:34;21.80;99.90
25112;DHT22;13092;51.996;4.458;2023-06-26T02:37:14;21.70;99.90
25112;DHT22;13092;51.996;4.458;2023-06-26T02:40:03;21.70;99.90
25112;DHT22;13092;51.996;4.458;2023-06-26T02:42:41;21.70;99.90
25112;DHT22;13092;51.996;4.458;2023-06-26T02:45:17;21.60;99.90
25112;DHT22;13092;51.996;4.458;2023-06-26T02:47:53;21.60;99.90
25112;DHT22;13092;51.996;4.458;2023-06-26T02:50:26;21.50;99.90
25112;DHT22;13092;51.996;4.458;2023-06-26T02:52:54;21.40;99.90
25112;DHT22;13092;51.996;4.458;2023-06-26T02:55:23;21.40;99.90
25112;DHT22;13092;51.996;4.458;2023-06-26T02:57:55;21.30;99.90
25112;DHT22;13092;51.996;4.458;2023-06-26T03:00:23;21.20;99.90
25112;DHT22;13092;51.996;4.458;2023-06-26T03:02:53;21.20;99.90
25112;DHT22;13092;51.996;4.458;2023-06-26T03:05:21;21.20;99.90
25112;DHT22;13092;51.996;4.458;2023-06-26T03:07:52;21.10;99.90
25112;DHT22;13092;51.996;4.458;2023-06-26T03:10:20;21.00;99.90
25112;DHT22;13092;51.996;4.458;2023-06-26T03:12:49;21.00;99.90
25112;DHT22;13092;51.996;4.458;2023-06-26T03:15:17;21.00;99.90
25112;DHT22;13092;51.996;4.458;2023-06-26T03:17:46;21.00;99.90
25112;DHT22;13092;51.996;4.458;2023-06-26T03:20:14;21.00;99.90
25112;DHT22;13092;51.996;4.458;2023-06-26T03:22:43;20.90;99.90
25112;DHT22;13092;51.996;4.458;2023-06-26T03:25:13;20.80;99.90
25112;DHT22;13092;51.996;4.458;2023-06-26T03:27:42;20.90;99.90
25112;DHT22;13092;51.996;4.458;2023-06-26T03:30:11;20.90;99.90
25112;DHT22;13092;51.996;4.458;2023-06-26T03:32:40;20.90;99.90
25112;DHT22;13092;51.996;4.458;2023-06-26T03:35:08;20.80;99.90
25112;DHT22;13092;51.996;4.458;2023-06-26T03:37:37;20.70;99.90
25112;DHT22;13092;51.996;4.458;2023-06-26T03:40:06;20.70;99.90
25112;DHT22;13092;51.996;4.458;2023-06-26T03:42:36;20.70;99.90
25112;DHT22;13092;51.996;4.458;2023-06-26T03:45:05;20.60;99.90
25112;DHT22;13092;51.996;4.458;2023-06-26T03:47:34;20.60;99.90
25112;DHT22;13092;51.996;4.458;2023-06-26T03:50:03;20.60;99.90
25112;DHT22;13092;51.996;4.458;2023-06-26T03:52:31;20.60;99.90
25112;DHT22;13092;51.996;4.458;2023-06-26T03:55:01;20.60;99.90
25112;DHT22;13092;51.996;4.458;2023-06-26T03:57:30;20.50;99.90
25112;DHT22;13092;51.996;4.458;2023-06-26T03:59:59;20.60;99.90
25112;DHT22;13092;51.996;4.458;2023-06-26T04:02:30;20.50;99.90
25112;DHT22;13092;51.996;4.458;2023-06-26T04:04:59;20.60;99.90
25112;DHT22;13092;51.996;4.458;2023-06-26T04:07:30;20.50;99.90
25112;DHT22;13092;51.996;4.458;2023-06-26T04:09:59;20.50;99.90
25112;DHT22;13092;51.996;4.458;2023-06-26T04:12:28;20.40;99.90
25112;DHT22;13092;51.996;4.458;2023-06-26T04:14:56;20.40;99.90
25112;DHT22;13092;51.996;4.458;2023-06-26T04:17:26;20.40;99.90
25112;DHT22;13092;51.996;4.458;2023-06-26T04:19:54;20.30;99.90
25112;DHT22;13092;51.996;4.458;2023-06-26T04:22:23;20.30;99.90
25112;DHT22;13092;51.996;4.458;2023-06-26T04:24:51;20.30;99.90
25112;DHT22;13092;51.996;4.458;2023-06-26T04:27:20;20.40;99.90
25112;DHT22;13092;51.996;4.458;2023-06-26T04:29:48;20.40;99.90
25112;DHT22;13092;51.996;4.458;2023-06-26T04:32:16;20.40;99.90
25112;DHT22;13092;51.996;4.458;2023-06-26T04:34:46;20.50;99.90
25112;DHT22;13092;51.996;4.458;2023-06-26T04:37:15;20.60;99.90
25112;DHT22;13092;51.996;4.458;2023-06-26T04:39:44;20.60;99.90
25112;DHT22;13092;51.996;4.458;2023-06-26T04:42:12;20.70;99.90
25112;DHT22;13092;51.996;4.458;2023-06-26T04:44:40;20.80;99.90
25112;DHT22;13092;51.996;4.458;2023-06-26T04:47:12;20.70;99.90
25112;DHT22;13092;51.996;4.458;2023-06-26T04:49:55;20.60;99.90
25112;DHT22;13092;51.996;4.458;2023-06-26T04:52:24;20.70;99.90
25112;DHT22;13092;51.996;4.458;2023-06-26T04:54:53;20.70;99.90
25112;DHT22;13092;51.996;4.458;2023-06-26T04:57:21;20.80;99.90
25112;DHT22;13092;51.996;4.458;2023-06-26T04:59:49;20.70;99.90
25112;DHT22;13092;51.996;4.458;2023-06-26T05:02:18;20.70;99.90
25112;DHT22;13092;51.996;4.458;2023-06-26T05:04:46;20.90;99.90
25112;DHT22;13092;51.996;4.458;2023-06-26T05:07:17;20.80;99.90
25112;DHT22;13092;51.996;4.458;2023-06-26T05:09:45;20.80;99.90
25112;DHT22;13092;51.996;4.458;2023-06-26T05:12:14;20.80;99.90
25112;DHT22;13092;51.996;4.458;2023-06-26T05:14:44;20.90;99.90
25112;DHT22;13092;51.996;4.458;2023-06-26T05:17:16;21.00;99.90
25112;DHT22;13092;51.996;4.458;2023-06-26T05:19:45;21.10;99.90
25112;DHT22;13092;51.996;4.458;2023-06-26T05:22:13;21.00;99.90
25112;DHT22;13092;51.996;4.458;2023-06-26T05:24:46;21.10;99.90
25112;DHT22;13092;51.996;4.458;2023-06-26T05:27:15;21.00;99.90
25112;DHT22;13092;51.996;4.458;2023-06-26T05:29:49;20.90;99.90
25112;DHT22;13092;51.996;4.458;2023-06-26T05:32:18;20.80;99.90
25112;DHT22;13092;51.996;4.458;2023-06-26T05:34:49;20.80;99.90
25112;DHT22;13092;51.996;4.458;2023-06-26T05:37:20;20.80;99.90
25112;DHT22;13092;51.996;4.458;2023-06-26T05:39:50;20.80;99.90
25112;DHT22;13092;51.996;4.458;2023-06-26T05:42:19;20.60;99.90
25112;DHT22;13092;51.996;4.458;2023-06-26T05:44:47;20.50;99.90
25112;DHT22;13092;51.996;4.458;2023-06-26T05:47:16;20.50;99.90
25112;DHT22;13092;51.996;4.458;2023-06-26T05:49:44;20.40;99.90
25112;DHT22;13092;51.996;4.458;2023-06-26T05:52:13;20.40;99.90
25112;DHT22;13092;51.996;4.458;2023-06-26T05:54:43;20.50;99.90
25112;DHT22;13092;51.996;4.458;2023-06-26T05:57:13;20.50;99.90
25112;DHT22;13092;51.996;4.458;2023-06-26T05:59:43;20.70;99.90
25112;DHT22;13092;51.996;4.458;2023-06-26T06:02:12;20.70;99.90
25112;DHT22;13092;51.996;4.458;2023-06-26T06:05:02;20.70;99.90
25112;DHT22;13092;51.996;4.458;2023-06-26T06:10:31;20.60;99.90
25112;DHT22;13092;51.996;4.458;2023-06-26T06:13:03;20.50;99.90
25112;DHT22;13092;51.996;4.458;2023-06-26T06:15:32;20.50;99.90
25112;DHT22;13092;51.996;4.458;2023-06-26T06:18:00;20.40;99.90
25112;DHT22;13092;51.996;4.458;2023-06-26T06:20:29;20.40;99.90
25112;DHT22;13092;51.996;4.458;2023-06-26T06:22:57;20.40;99.90
25112;DHT22;13092;51.996;4.458;2023-06-26T06:25:26;20.40;99.90
25112;DHT22;13092;51.996;4.458;2023-06-26T06:27:55;20.40;99.90
25112;DHT22;13092;51.996;4.458;2023-06-26T06:30:24;20.30;99.90
25112;DHT22;13092;51.996;4.458;2023-06-26T06:33:11;20.20;99.90
25112;DHT22;13092;51.996;4.458;2023-06-26T06:35:39;20.30;99.90
25112;DHT22;13092;51.996;4.458;2023-06-26T06:38:07;20.30;99.90
25112;DHT22;13092;51.996;4.458;2023-06-26T06:40:36;20.30;99.90
25112;DHT22;13092;51.996;4.458;2023-06-26T06:43:06;20.40;99.90
25112;DHT22;13092;51.996;4.458;2023-06-26T06:45:36;20.60;99.90
25112;DHT22;13092;51.996;4.458;2023-06-26T06:48:05;20.70;99.90
25112;DHT22;13092;51.996;4.458;2023-06-26T06:50:34;20.80;99.90
25112;DHT22;13092;51.996;4.458;2023-06-26T06:53:03;20.70;99.90
25112;DHT22;13092;51.996;4.458;2023-06-26T06:55:31;20.70;99.90
25112;DHT22;13092;51.996;4.458;2023-06-26T06:57:59;20.50;99.90
25112;DHT22;13092;51.996;4.458;2023-06-26T07:00:31;20.60;99.90
25112;DHT22;13092;51.996;4.458;2023-06-26T07:03:01;20.50;99.90
25112;DHT22;13092;51.996;4.458;2023-06-26T07:05:30;20.50;99.90
25112;DHT22;13092;51.996;4.458;2023-06-26T07:07:59;20.40;99.90
25112;DHT22;13092;51.996;4.458;2023-06-26T07:10:30;20.30;99.90
25112;DHT22;13092;51.996;4.458;2023-06-26T07:12:59;20.20;99.90
25112;DHT22;13092;51.996;4.458;2023-06-26T07:15:27;20.30;99.90
25112;DHT22;13092;51.996;4.458;2023-06-26T07:17:55;20.50;99.90
25112;DHT22;13092;51.996;4.458;2023-06-26T07:20:25;20.30;99.90
25112;DHT22;13092;51.996;4.458;2023-06-26T07:22:53;20.40;99.90
25112;DHT22;13092;51.996;4.458;2023-06-26T07:25:21;20.40;99.90
25112;DHT22;13092;51.996;4.458;2023-06-26T07:27:50;20.40;99.90
25112;DHT22;13092;51.996;4.458;2023-06-26T07:30:18;20.40;99.90
25112;DHT22;13092;51.996;4.458;2023-06-26T07:32:47;20.50;99.90
25112;DHT22;13092;51.996;4.458;2023-06-26T07:35:15;20.60;99.90
25112;DHT22;13092;51.996;4.458;2023-06-26T07:37:45;20.60;99.90
25112;DHT22;13092;51.996;4.458;2023-06-26T07:40:13;20.60;99.90
25112;DHT22;13092;51.996;4.458;2023-06-26T07:42:44;20.60;99.90
25112;DHT22;13092;51.996;4.458;2023-06-26T07:45:15;20.60;99.90
25112;DHT22;13092;51.996;4.458;2023-06-26T07:47:44;20.60;99.90
25112;DHT22;13092;51.996;4.458;2023-06-26T07:50:16;20.60;99.90
25112;DHT22;13092;51.996;4.458;2023-06-26T07:52:52;20.60;99.90
25112;DHT22;13092;51.996;4.458;2023-06-26T07:55:21;20.60;99.90
25112;DHT22;13092;51.996;4.458;2023-06-26T07:57:52;20.50;99.90
25112;DHT22;13092;51.996;4.458;2023-06-26T08:00:22;20.70;99.90
25112;DHT22;13092;51.996;4.458;2023-06-26T08:02:50;20.70;99.90
25112;DHT22;13092;51.996;4.458;2023-06-26T08:05:19;20.80;99.90
25112;DHT22;13092;51.996;4.458;2023-06-26T08:07:48;21.00;99.90
25112;DHT22;13092;51.996;4.458;2023-06-26T08:10:17;21.20;99.90
25112;DHT22;13092;51.996;4.458;2023-06-26T08:12:46;21.10;99.90
25112;DHT22;13092;51.996;4.458;2023-06-26T08:15:16;21.20;99.90
25112;DHT22;13092;51.996;4.458;2023-06-26T08:17:44;21.30;99.90
25112;DHT22;13092;51.996;4.458;2023-06-26T08:20:13;21.20;99.90
25112;DHT22;13092;51.996;4.458;2023-06-26T08:22:41;21.10;99.90
25112;DHT22;13092;51.996;4.458;2023-06-26T08:25:10;21.10;99.90
25112;DHT22;13092;51.996;4.458;2023-06-26T08:27:39;21.00;99.90
25112;DHT22;13092;51.996;4.458;2023-06-26T08:30:08;21.10;99.90
25112;DHT22;13092;51.996;4.458;2023-06-26T08:32:37;21.20;99.90
25112;DHT22;13092;51.996;4.458;2023-06-26T08:35:06;21.30;99.90
25112;DHT22;13092;51.996;4.458;2023-06-26T08:37:37;21.10;99.90
25112;DHT22;13092;51.996;4.458;2023-06-26T08:40:07;21.10;99.90
25112;DHT22;13092;51.996;4.458;2023-06-26T08:42:39;21.20;99.90
25112;DHT22;13092;51.996;4.458;2023-06-26T08:45:10;21.20;99.90
25112;DHT22;13092;51.996;4.458;2023-06-26T08:47:41;21.20;99.90
25112;DHT22;13092;51.996;4.458;2023-06-26T08:50:13;21.30;99.90
25112;DHT22;13092;51.996;4.458;2023-06-26T08:52:52;21.30;99.90
25112;DHT22;13092;51.996;4.458;2023-06-26T08:55:23;21.20;99.90
25112;DHT22;13092;51.996;4.458;2023-06-26T08:57:56;21.00;99.90
25112;DHT22;13092;51.996;4.458;2023-06-26T09:00:28;21.10;99.90
25112;DHT22;13092;51.996;4.458;2023-06-26T09:02:56;21.30;99.90
25112;DHT22;13092;51.996;4.458;2023-06-26T09:05:26;21.30;99.90
25112;DHT22;13092;51.996;4.458;2023-06-26T09:07:55;21.50;99.90
25112;DHT22;13092;51.996;4.458;2023-06-26T09:10:25;21.40;99.90
25112;DHT22;13092;51.996;4.458;2023-06-26T09:12:57;21.50;99.90
25112;DHT22;13092;51.996;4.458;2023-06-26T09:15:36;21.60;99.90
25112;DHT22;13092;51.996;4.458;2023-06-26T09:18:05;21.60;99.90
25112;DHT22;13092;51.996;4.458;2023-06-26T09:20:34;21.60;99.90
25112;DHT22;13092;51.996;4.458;2023-06-26T09:23:04;21.70;99.90
25112;DHT22;13092;51.996;4.458;2023-06-26T09:25:32;21.60;99.90
25112;DHT22;13092;51.996;4.458;2023-06-26T09:28:10;21.50;99.90
25112;DHT22;13092;51.996;4.458;2023-06-26T09:30:47;21.60;99.90
25112;DHT22;13092;51.996;4.458;2023-06-26T09:33:20;21.70;99.90
25112;DHT22;13092;51.996;4.458;2023-06-26T09:35:49;21.70;99.90
25112;DHT22;13092;51.996;4.458;2023-06-26T09:38:17;21.70;99.90
25112;DHT22;13092;51.996;4.458;2023-06-26T09:40:48;21.70;99.90
25112;DHT22;13092;51.996;4.458;2023-06-26T09:43:20;21.70;99.90
25112;DHT22;13092;51.996;4.458;2023-06-26T09:49:04;21.80;99.90
25112;DHT22;13092;51.996;4.458;2023-06-26T09:52:29;21.80;99.90
25112;DHT22;13092;51.996;4.458;2023-06-26T09:55:37;21.90;99.90
25112;DHT22;13092;51.996;4.458;2023-06-26T09:58:06;22.00;99.90
25112;DHT22;13092;51.996;4.458;2023-06-26T10:00:40;22.10;99.90
25112;DHT22;13092;51.996;4.458;2023-06-26T10:03:12;22.30;99.90
25112;DHT22;13092;51.996;4.458;2023-06-26T10:05:52;22.40;99.90
25112;DHT22;13092;51.996;4.458;2023-06-26T10:08:20;22.50;99.90
25112;DHT22;13092;51.996;4.458;2023-06-26T10:10:49;22.60;99.90
25112;DHT22;13092;51.996;4.458;2023-06-26T10:13:21;22.60;99.90
25112;DHT22;13092;51.996;4.458;2023-06-26T10:15:54;22.80;99.90
25112;DHT22;13092;51.996;4.458;2023-06-26T10:18:27;22.80;99.90
25112;DHT22;13092;51.996;4.458;2023-06-26T10:21:05;22.90;99.90
25112;DHT22;13092;51.996;4.458;2023-06-26T10:23:36;22.90;99.90
25112;DHT22;13092;51.996;4.458;2023-06-26T10:26:06;22.90;99.90
25112;DHT22;13092;51.996;4.458;2023-06-26T10:28:40;22.70;99.90
25112;DHT22;13092;51.996;4.458;2023-06-26T10:31:12;22.60;99.90
25112;DHT22;13092;51.996;4.458;2023-06-26T10:33:41;22.50;99.90
25112;DHT22;13092;51.996;4.458;2023-06-26T10:36:17;22.50;99.90
25112;DHT22;13092;51.996;4.458;2023-06-26T10:38:51;22.50;99.90
25112;DHT22;13092;51.996;4.458;2023-06-26T10:41:21;22.50;99.90
25112;DHT22;13092;51.996;4.458;2023-06-26T10:43:51;22.50;99.90
25112;DHT22;13092;51.996;4.458;2023-06-26T10:46:22;22.70;99.90
25112;DHT22;13092;51.996;4.458;2023-06-26T10:49:00;22.70;99.90
25112;DHT22;13092;51.996;4.458;2023-06-26T10:51:31;22.70;99.90
25112;DHT22;13092;51.996;4.458;2023-06-26T10:54:01;22.80;99.90
25112;DHT22;13092;51.996;4.458;2023-06-26T10:56:43;22.80;99.90
25112;DHT22;13092;51.996;4.458;2023-06-26T10:59:14;22.80;99.90
25112;DHT22;13092;51.996;4.458;2023-06-26T11:29:08;22.60;99.90
25112;DHT22;13092;51.996;4.458;2023-06-26T11:31:38;22.70;99.90
25112;DHT22;13092;51.996;4.458;2023-06-26T11:34:08;22.40;99.90
25112;DHT22;13092;51.996;4.458;2023-06-26T11:36:37;22.70;99.90
25112;DHT22;13092;51.996;4.458;2023-06-26T11:39:10;22.80;99.90
25112;DHT22;13092;51.996;4.458;2023-06-26T11:41:39;22.60;99.90
25112;DHT22;13092;51.996;4.458;2023-06-26T11:44:10;22.70;99.90
25112;DHT22;13092;51.996;4.458;2023-06-26T11:46:41;22.70;99.90
25112;DHT22;13092;51.996;4.458;2023-06-26T11:49:09;22.80;99.90
25112;DHT22;13092;51.996;4.458;2023-06-26T11:51:40;22.90;99.90
25112;DHT22;13092;51.996;4.458;2023-06-26T11:54:09;23.10;99.90
25112;DHT22;13092;51.996;4.458;2023-06-26T11:56:39;23.20;99.90
25112;DHT22;13092;51.996;4.458;2023-06-26T11:59:13;23.40;99.90
25112;DHT22;13092;51.996;4.458;2023-06-26T12:01:43;23.70;99.90
25112;DHT22;13092;51.996;4.458;2023-06-26T12:04:16;23.70;99.90
25112;DHT22;13092;51.996;4.458;2023-06-26T12:06:52;23.60;99.90
25112;DHT22;13092;51.996;4.458;2023-06-26T12:09:24;23.50;99.90
25112;DHT22;13092;51.996;4.458;2023-06-26T12:11:55;23.40;99.90
25112;DHT22;13092;51.996;4.458;2023-06-26T12:14:26;23.30;99.90
25112;DHT22;13092;51.996;4.458;2023-06-26T12:16:56;23.30;99.90
25112;DHT22;13092;51.996;4.458;2023-06-26T12:19:31;23.20;99.90
25112;DHT22;13092;51.996;4.458;2023-06-26T12:22:06;23.10;99.90
25112;DHT22;13092;51.996;4.458;2023-06-26T12:24:36;23.00;99.90
25112;DHT22;13092;51.996;4.458;2023-06-26T12:27:10;23.10;99.90
25112;DHT22;13092;51.996;4.458;2023-06-26T12:29:41;23.00;99.90
25112;DHT22;13092;51.996;4.458;2023-06-26T12:32:12;22.90;99.90
25112;DHT22;13092;51.996;4.458;2023-06-26T12:34:41;22.90;99.90
25112;DHT22;13092;51.996;4.458;2023-06-26T12:37:10;22.80;99.90
25112;DHT22;13092;51.996;4.458;2023-06-26T12:39:48;23.00;99.90
25112;DHT22;13092;51.996;4.458;2023-06-26T12:42:18;23.00;99.90
25112;DHT22;13092;51.996;4.458;2023-06-26T12:44:48;23.10;99.90
25112;DHT22;13092;51.996;4.458;2023-06-26T12:47:18;23.10;99.90
25112;DHT22;13092;51.996;4.458;2023-06-26T12:49:50;23.10;99.90
25112;DHT22;13092;51.996;4.458;2023-06-26T12:52:20;23.00;99.90
25112;DHT22;13092;51.996;4.458;2023-06-26T12:54:52;23.00;99.90
25112;DHT22;13092;51.996;4.458;2023-06-26T12:57:20;23.00;99.90
25112;DHT22;13092;51.996;4.458;2023-06-26T12:59:50;23.00;99.90
25112;DHT22;13092;51.996;4.458;2023-06-26T13:02:19;23.00;99.90
25112;DHT22;13092;51.996;4.458;2023-06-26T13:04:47;23.10;99.90
25112;DHT22;13092;51.996;4.458;2023-06-26T13:07:16;23.10;99.90
25112;DHT22;13092;51.996;4.458;2023-06-26T13:09:46;23.20;99.90
25112;DHT22;13092;51.996;4.458;2023-06-26T13:12:15;23.20;99.90
25112;DHT22;13092;51.996;4.458;2023-06-26T13:14:43;23.10;99.90
25112;DHT22;13092;51.996;4.458;2023-06-26T13:17:14;23.00;99.90
25112;DHT22;13092;51.996;4.458;2023-06-26T13:19:43;22.80;99.90
25112;DHT22;13092;51.996;4.458;2023-06-26T13:22:11;22.90;99.90
25112;DHT22;13092;51.996;4.458;2023-06-26T13:24:40;23.00;99.90
25112;DHT22;13092;51.996;4.458;2023-06-26T13:27:08;23.20;99.90
25112;DHT22;13092;51.996;4.458;2023-06-26T13:38:26;23.60;99.90
25112;DHT22;13092;51.996;4.458;2023-06-26T13:40:55;23.80;99.90
25112;DHT22;13092;51.996;4.458;2023-06-26T13:43:24;23.80;99.90
25112;DHT22;13092;51.996;4.458;2023-06-26T13:45:53;23.70;99.90
25112;DHT22;13092;51.996;4.458;2023-06-26T14:09:57;23.40;99.90
25112;DHT22;13092;51.996;4.458;2023-06-26T14:13:01;23.30;99.90
25112;DHT22;13092;51.996;4.458;2023-06-26T14:15:52;23.20;99.90
25112;DHT22;13092;51.996;4.458;2023-06-26T14:19:13;23.30;99.90
25112;DHT22;13092;51.996;4.458;2023-06-26T17:07:49;24.10;99.90
25112;DHT22;13092;51.996;4.458;2023-06-26T17:10:17;24.20;99.90
25112;DHT22;13092;51.996;4.458;2023-06-26T17:12:45;24.30;99.90
25112;DHT22;13092;51.996;4.458;2023-06-26T17:15:14;24.30;99.90
25112;DHT22;13092;51.996;4.458;2023-06-26T17:17:43;24.40;99.90
25112;DHT22;13092;51.996;4.458;2023-06-26T17:20:12;24.30;99.90
25112;DHT22;13092;51.996;4.458;2023-06-26T17:22:46;24.30;99.90
25112;DHT22;13092;51.996;4.458;2023-06-26T17:25:17;24.10;99.90
25112;DHT22;13092;51.996;4.458;2023-06-26T17:27:46;24.40;99.90
25112;DHT22;13092;51.996;4.458;2023-06-26T17:30:15;24.40;99.90
25112;DHT22;13092;51.996;4.458;2023-06-26T17:32:44;24.40;99.90
25112;DHT22;13092;51.996;4.458;2023-06-26T17:35:12;24.50;99.90
25112;DHT22;13092;51.996;4.458;2023-06-26T17:37:46;24.70;99.90
25112;DHT22;13092;51.996;4.458;2023-06-26T17:40:16;24.40;99.90
25112;DHT22;13092;51.996;4.458;2023-06-26T17:42:46;24.10;99.90
25112;DHT22;13092;51.996;4.458;2023-06-26T17:45:14;24.20;99.90
25112;DHT22;13092;51.996;4.458;2023-06-26T17:47:43;24.50;99.90
25112;DHT22;13092;51.996;4.458;2023-06-26T17:50:11;24.60;99.90
25112;DHT22;13092;51.996;4.458;2023-06-26T17:52:43;24.60;99.90
25112;DHT22;13092;51.996;4.458;2023-06-26T17:55:15;24.60;99.90
25112;DHT22;13092;51.996;4.458;2023-06-26T17:57:44;24.60;99.90
25112;DHT22;13092;51.996;4.458;2023-06-26T18:00:16;24.50;99.90
25112;DHT22;13092;51.996;4.458;2023-06-26T18:02:45;24.20;99.90
25112;DHT22;13092;51.996;4.458;2023-06-26T18:05:13;24.00;99.90
